createdAt,value
2023-04-10T00:01:12.510Z,18.93
2023-04-10T00:03:41.415Z,21.58
2023-04-10T00:06:09.134Z,17.98
2023-04-10T00:08:36.951Z,17.92
2023-04-10T00:11:04.897Z,20.17
2023-04-10T00:13:32.736Z,16.90
2023-04-10T00:16:00.421Z,25.35
2023-04-10T00:18:28.705Z,18.83
2023-04-10T00:20:56.337Z,17.87
2023-04-10T00:23:24.222Z,17.88
2023-04-10T00:31:08.720Z,19.63
2023-04-10T00:33:36.380Z,19.20
2023-04-10T00:36:04.800Z,20.60
2023-04-10T00:38:33.228Z,18.80
2023-04-10T00:41:01.107Z,21.20
2023-04-10T00:43:28.691Z,19.67
2023-04-10T00:45:56.725Z,21.10
2023-04-10T00:48:26.190Z,20.88
2023-04-10T00:50:55.204Z,16.17
2023-04-10T00:53:22.882Z,23.65
2023-04-10T00:55:57.480Z,19.77
2023-04-10T00:58:26.710Z,18.45
2023-04-10T01:03:24.041Z,19.55
2023-04-10T01:09:01.489Z,20.50
2023-04-10T01:11:54.969Z,21.77
2023-04-10T01:14:51.704Z,23.67
2023-04-10T01:17:29.640Z,20.33
2023-04-10T01:20:17.048Z,20.83
2023-04-10T01:23:42.171Z,19.35
2023-04-10T01:26:11.997Z,22.17
2023-04-10T01:29:01.892Z,21.33
2023-04-10T01:31:50.500Z,22.75
2023-04-10T01:34:25.164Z,21.80
2023-04-10T01:37:27.494Z,22.77
2023-04-10T01:40:09.334Z,20.70
2023-04-10T01:42:47.989Z,21.60
2023-04-10T01:45:21.371Z,21.80
2023-04-10T01:47:52.386Z,21.02
2023-04-10T01:50:24.306Z,20.77
2023-04-10T01:52:52.926Z,20.80
2023-04-10T01:55:27.582Z,19.98
2023-04-10T01:58:07.363Z,20.23
2023-04-10T02:00:41.644Z,21.25
2023-04-10T02:03:10.664Z,22.80
2023-04-10T02:06:16.229Z,22.80
2023-04-10T02:08:59.518Z,19.77
2023-04-10T02:11:35.470Z,24.02
2023-04-10T02:14:08.605Z,23.42
2023-04-10T02:16:38.665Z,20.38
2023-04-10T02:19:06.898Z,21.48
2023-04-10T02:21:35.140Z,17.25
2023-04-10T02:24:02.851Z,19.98
2023-04-10T02:26:30.368Z,19.27
2023-04-10T02:28:58.097Z,19.83
2023-04-10T02:31:26.224Z,19.33
2023-04-10T02:33:55.354Z,23.25
2023-04-10T02:36:23.149Z,19.63
2023-04-10T02:38:51.298Z,19.38
2023-04-10T02:41:19.108Z,18.27
2023-04-10T02:43:47.025Z,22.25
2023-04-10T02:46:15.416Z,20.30
2023-04-10T02:48:43.092Z,19.10
2023-04-10T02:51:10.750Z,19.27
2023-04-10T02:53:38.747Z,18.23
2023-04-10T02:56:08.257Z,18.20
2023-04-10T02:58:36.532Z,22.08
2023-04-10T03:01:09.679Z,19.35
2023-04-10T03:03:42.527Z,19.95
2023-04-10T03:06:11.024Z,20.00
2023-04-10T03:11:09.263Z,19.70
2023-04-10T03:13:36.947Z,20.80
2023-04-10T03:16:04.774Z,20.33
2023-04-10T03:18:34.139Z,19.60
2023-04-10T03:21:02.619Z,19.53
2023-04-10T03:23:30.146Z,20.98
2023-04-10T03:25:58.410Z,19.40
2023-04-10T03:28:29.722Z,23.38
2023-04-10T03:30:57.293Z,17.20
2023-04-10T03:33:25.365Z,21.65
2023-04-10T03:35:53.627Z,19.30
2023-04-10T03:38:21.386Z,21.70
2023-04-10T03:40:48.895Z,18.52
2023-04-10T03:43:19.582Z,20.15
2023-04-10T03:45:48.981Z,19.63
2023-04-10T03:48:17.886Z,19.55
2023-04-10T03:50:47.712Z,19.48
2023-04-10T03:53:17.089Z,18.25
2023-04-10T03:55:45.898Z,16.33
2023-04-10T03:58:13.424Z,16.73
2023-04-10T04:00:41.182Z,16.40
2023-04-10T04:03:16.096Z,18.23
2023-04-10T04:05:50.989Z,19.17
2023-04-10T04:08:25.553Z,17.98
2023-04-10T04:11:13.042Z,18.83
2023-04-10T04:16:53.056Z,18.08
2023-04-10T04:19:34.484Z,17.05
2023-04-10T04:22:27.942Z,17.52
2023-04-10T04:25:01.518Z,18.38
2023-04-10T04:28:01.971Z,17.65
2023-04-10T04:30:49.454Z,18.00
2023-04-10T04:36:05.536Z,16.83
2023-04-10T04:39:03.434Z,15.65
2023-04-10T04:41:55.146Z,17.77
2023-04-10T04:44:50.591Z,16.38
2023-04-10T04:47:42.808Z,16.27
2023-04-10T04:50:36.762Z,16.40
2023-04-10T04:53:17.293Z,16.40
2023-04-10T04:56:08.345Z,18.88
2023-04-10T04:58:45.352Z,18.80
2023-04-10T05:01:36.234Z,21.42
2023-04-10T05:04:10.225Z,16.87
2023-04-10T05:06:57.936Z,14.18
2023-04-10T05:09:45.428Z,15.75
2023-04-10T05:12:41.875Z,19.40
2023-04-10T05:15:22.477Z,17.50
2023-04-10T05:18:08.343Z,15.73
2023-04-10T05:20:59.457Z,16.10
2023-04-10T05:23:45.799Z,20.05
2023-04-10T05:26:28.500Z,14.32
2023-04-10T05:29:20.840Z,17.30
2023-04-10T05:32:11.727Z,15.40
2023-04-10T05:34:58.216Z,14.77
2023-04-10T05:38:06.695Z,18.08
2023-04-10T05:40:57.498Z,15.60
2023-04-10T05:43:37.897Z,16.13
2023-04-10T05:46:26.679Z,16.60
2023-04-10T05:49:18.452Z,15.57
2023-04-10T05:52:12.447Z,16.63
2023-04-10T05:55:04.758Z,19.67
2023-04-10T05:57:41.396Z,17.90
2023-04-10T06:00:44.014Z,15.57
2023-04-10T06:03:35.539Z,15.43
2023-04-10T06:06:04.040Z,14.82
2023-04-10T06:08:34.639Z,16.65
2023-04-10T06:11:02.316Z,17.75
2023-04-10T06:13:32.610Z,16.08
2023-04-10T06:16:02.193Z,17.50
2023-04-10T06:18:31.410Z,15.32
2023-04-10T06:21:01.871Z,17.02
2023-04-10T06:23:29.866Z,16.30
2023-04-10T06:25:57.644Z,17.73
2023-04-10T06:28:25.419Z,17.73
2023-04-10T06:30:57.551Z,17.48
2023-04-10T06:33:31.734Z,17.63
2023-04-10T06:35:59.644Z,17.77
2023-04-10T06:38:27.363Z,16.00
2023-04-10T06:40:55.154Z,16.27
2023-04-10T06:43:22.796Z,16.75
2023-04-10T06:45:51.145Z,14.68
2023-04-10T06:48:18.914Z,13.80
2023-04-10T06:50:46.600Z,13.77
2023-04-10T06:53:14.219Z,20.75
2023-04-10T06:55:41.802Z,13.73
2023-04-10T06:58:09.325Z,13.80
2023-04-10T07:00:36.932Z,14.07
2023-04-10T07:03:04.550Z,15.88
2023-04-10T07:05:32.217Z,15.57
2023-04-10T07:08:00.120Z,15.35
2023-04-10T07:10:27.708Z,18.83
2023-04-10T07:12:57.256Z,15.38
2023-04-10T07:15:25.737Z,12.55
2023-04-10T07:17:53.273Z,14.00
2023-04-10T07:20:21.106Z,13.05
2023-04-10T07:22:48.748Z,13.43
2023-04-10T07:25:22.570Z,12.98
2023-04-10T07:27:50.620Z,12.77
2023-04-10T07:30:20.395Z,12.75
2023-04-10T07:32:48.335Z,12.07
2023-04-10T07:35:22.072Z,13.27
2023-04-10T07:37:52.459Z,12.35
2023-04-10T07:40:20.486Z,10.38
2023-04-10T07:42:48.390Z,11.68
2023-04-10T07:45:21.311Z,11.32
2023-04-10T07:47:49.580Z,9.50
2023-04-10T07:50:17.315Z,10.63
2023-04-10T07:52:44.919Z,9.10
2023-04-10T07:55:12.558Z,8.48
2023-04-10T07:57:41.708Z,10.98
2023-04-10T08:00:10.623Z,7.43
2023-04-10T08:02:41.270Z,8.35
2023-04-10T08:05:13.575Z,7.90
2023-04-10T08:07:41.394Z,7.25
2023-04-10T08:10:09.470Z,9.05
2023-04-10T08:12:37.334Z,8.70
2023-04-10T08:15:05.661Z,7.13
2023-04-10T08:17:33.213Z,6.07
2023-04-10T08:20:00.750Z,6.72
2023-04-10T08:22:28.375Z,8.40
2023-04-10T08:24:55.952Z,6.85
2023-04-10T08:27:23.541Z,7.60
2023-04-10T08:29:51.152Z,6.00
2023-04-10T08:32:18.719Z,6.82
2023-04-10T08:34:46.729Z,6.80
2023-04-10T08:37:15.692Z,6.70
2023-04-10T08:39:43.274Z,5.72
2023-04-10T08:42:10.818Z,5.28
2023-04-10T08:44:39.741Z,5.80
2023-04-10T08:47:08.709Z,5.47
2023-04-10T08:49:54.317Z,17.65
2023-04-10T08:52:25.276Z,4.88
2023-04-10T08:54:58.646Z,5.68
2023-04-10T08:57:27.280Z,5.43
2023-04-10T08:59:55.542Z,5.43
2023-04-10T09:02:24.535Z,5.50
2023-04-10T09:04:56.369Z,5.15
2023-04-10T09:07:24.073Z,4.47
2023-04-10T09:09:51.652Z,5.50
2023-04-10T09:12:19.350Z,4.22
2023-04-10T09:14:49.644Z,4.72
2023-04-10T09:17:24.277Z,4.97
2023-04-10T09:19:56.354Z,4.75
2023-04-10T09:22:36.285Z,4.05
2023-04-10T09:25:05.669Z,4.40
2023-04-10T09:27:35.484Z,4.90
2023-04-10T09:30:05.073Z,4.05
2023-04-10T09:35:09.540Z,4.70
2023-04-10T09:37:41.276Z,4.30
2023-04-10T09:40:27.868Z,3.97
2023-04-10T09:42:57.720Z,6.65
2023-04-10T09:45:25.923Z,4.60
2023-04-10T09:48:06.609Z,3.42
2023-04-10T09:50:40.744Z,3.85
2023-04-10T09:53:20.123Z,3.72
2023-04-10T09:55:49.621Z,4.20
2023-04-10T09:58:19.072Z,3.95
2023-04-10T10:00:49.328Z,3.45
2023-04-10T10:03:25.434Z,3.22
2023-04-10T10:05:53.163Z,2.65
2023-04-10T10:08:21.808Z,4.22
2023-04-10T10:10:54.110Z,3.45
2023-04-10T10:13:32.111Z,4.03
2023-04-10T10:16:47.393Z,4.37
2023-04-10T10:19:29.224Z,3.80
2023-04-10T10:21:57.529Z,4.60
2023-04-10T10:24:28.058Z,10.60
2023-04-10T10:26:59.677Z,3.05
2023-04-10T10:29:32.315Z,2.72
2023-04-10T10:32:03.747Z,2.58
2023-04-10T10:34:31.873Z,4.10
2023-04-10T10:36:59.989Z,3.75
2023-04-10T10:40:42.399Z,2.78
2023-04-10T10:43:52.935Z,3.40
2023-04-10T10:46:34.576Z,3.00
2023-04-10T10:49:02.441Z,3.08
2023-04-10T10:51:51.179Z,2.70
2023-04-10T10:54:31.416Z,2.88
2023-04-10T10:57:00.131Z,2.63
2023-04-10T10:59:46.455Z,2.72
2023-04-10T11:02:18.999Z,3.45
2023-04-10T11:04:51.407Z,2.72
2023-04-10T11:07:19.351Z,2.50
2023-04-10T11:09:57.062Z,2.13
2023-04-10T11:12:26.833Z,2.80
2023-04-10T11:15:04.772Z,2.28
2023-04-10T11:17:54.342Z,2.08
2023-04-10T11:20:26.971Z,2.22
2023-04-10T11:23:12.137Z,2.08
2023-04-10T11:25:55.858Z,2.42
2023-04-10T11:28:33.110Z,2.20
2023-04-10T11:31:19.631Z,1.92
2023-04-10T11:34:01.679Z,2.50
2023-04-10T11:36:46.177Z,2.40
2023-04-10T11:39:20.818Z,2.28
2023-04-10T11:41:51.951Z,1.67
2023-04-10T11:44:39.038Z,1.75
2023-04-10T11:47:06.719Z,1.20
2023-04-10T11:49:35.002Z,1.20
2023-04-10T11:52:03.127Z,1.27
2023-04-10T11:54:31.267Z,1.30
2023-04-10T11:57:10.174Z,0.80
2023-04-10T11:59:37.764Z,1.00
2023-04-10T12:02:15.135Z,2.15
2023-04-10T12:04:44.656Z,1.25
2023-04-10T12:07:12.583Z,0.70
2023-04-10T12:09:40.644Z,1.63
2023-04-10T12:12:08.893Z,1.57
2023-04-10T12:14:39.766Z,1.93
2023-04-10T12:17:10.024Z,2.10
2023-04-10T12:19:39.725Z,2.42
2023-04-10T12:22:07.709Z,3.40
2023-04-10T12:24:47.387Z,2.47
2023-04-10T12:27:26.773Z,1.48
2023-04-10T12:29:57.863Z,1.30
2023-04-10T12:32:27.634Z,1.10
2023-04-10T12:35:01.141Z,1.60
2023-04-10T12:37:52.273Z,1.80
2023-04-10T12:40:45.517Z,1.10
2023-04-10T12:43:30.587Z,1.55
2023-04-10T12:45:58.588Z,2.20
2023-04-10T12:48:26.356Z,2.60
2023-04-10T12:50:53.984Z,2.38
2023-04-10T12:53:21.719Z,1.20
2023-04-10T12:56:09.405Z,1.20
2023-04-10T12:58:37.234Z,3.22
2023-04-10T13:01:09.802Z,1.80
2023-04-10T13:03:38.198Z,1.98
2023-04-10T13:06:07.540Z,1.10
2023-04-10T13:08:36.451Z,2.45
2023-04-10T13:11:05.576Z,1.52
2023-04-10T13:13:33.752Z,1.75
2023-04-10T13:16:01.511Z,2.38
2023-04-10T13:18:29.327Z,2.03
2023-04-10T13:20:57.056Z,2.00
2023-04-10T13:23:25.009Z,2.45
2023-04-10T13:25:53.782Z,1.60
2023-04-10T13:28:21.911Z,1.63
2023-04-10T13:30:49.558Z,2.28
2023-04-10T13:33:17.231Z,1.30
2023-04-10T13:35:45.428Z,1.45
2023-04-10T13:38:13.656Z,1.63
2023-04-10T13:40:41.956Z,1.60
2023-04-10T13:43:10.114Z,2.95
2023-04-10T13:45:37.734Z,4.13
2023-04-10T13:48:07.422Z,3.63
2023-04-10T13:50:35.172Z,1.10
2023-04-10T13:53:02.951Z,1.75
2023-04-10T13:55:30.564Z,2.15
2023-04-10T13:57:58.280Z,2.08
2023-04-10T14:00:26.312Z,1.55
2023-04-10T14:02:54.283Z,1.63
2023-04-10T14:05:22.594Z,2.03
2023-04-10T14:07:57.349Z,1.60
2023-04-10T14:10:25.309Z,1.83
2023-04-10T14:12:52.940Z,1.80
2023-04-10T14:15:20.589Z,2.20
2023-04-10T14:17:48.410Z,1.40
2023-04-10T14:20:16.125Z,2.15
2023-04-10T14:22:47.450Z,2.47
2023-04-10T14:25:22.808Z,4.60
2023-04-10T14:27:54.061Z,1.80
2023-04-10T14:30:21.769Z,2.72
2023-04-10T14:32:49.608Z,1.95
2023-04-10T14:35:18.131Z,2.20
2023-04-10T14:37:45.943Z,2.00
2023-04-10T14:40:14.586Z,1.52
2023-04-10T14:45:13.524Z,4.75
2023-04-10T14:47:41.834Z,2.55
2023-04-10T14:50:10.207Z,1.60
2023-04-10T14:52:38.463Z,2.70
2023-04-10T14:55:06.890Z,1.42
2023-04-10T14:57:36.134Z,1.20
2023-04-10T15:00:05.300Z,1.83
2023-04-10T15:05:04.657Z,1.20
2023-04-10T15:07:32.477Z,1.60
2023-04-10T15:10:00.400Z,1.83
2023-04-10T15:12:28.089Z,1.38
2023-04-10T15:14:55.722Z,1.40
2023-04-10T15:17:24.291Z,1.73
2023-04-10T15:19:51.996Z,1.70
2023-04-10T15:22:19.642Z,2.10
2023-04-10T15:24:50.874Z,1.98
2023-04-10T15:27:22.149Z,1.52
2023-04-10T15:29:50.321Z,2.03
2023-04-10T15:32:18.056Z,2.88
2023-04-10T15:34:46.158Z,2.05
2023-04-10T15:37:14.333Z,3.35
2023-04-10T15:39:42.200Z,1.83
2023-04-10T15:42:10.357Z,2.20
2023-04-10T15:44:38.565Z,2.67
2023-04-10T15:47:06.887Z,2.15
2023-04-10T15:49:38.183Z,3.47
2023-04-10T15:52:07.483Z,2.42
2023-04-10T15:54:35.563Z,1.90
2023-04-10T15:57:04.826Z,2.23
2023-04-10T15:59:33.798Z,2.50
2023-04-10T16:02:01.894Z,2.65
2023-04-10T16:04:31.099Z,2.27
2023-04-10T16:06:59.450Z,2.15
2023-04-10T16:09:27.657Z,2.70
2023-04-10T16:11:56.158Z,2.78
2023-04-10T16:14:23.956Z,3.03
2023-04-10T16:16:51.531Z,3.53
2023-04-10T16:19:19.428Z,3.83
2023-04-10T16:21:47.032Z,3.88
2023-04-10T16:24:14.699Z,18.35
2023-04-10T16:26:42.415Z,3.55
2023-04-10T16:29:10.036Z,1.90
2023-04-10T16:31:37.780Z,5.57
2023-04-10T16:34:09.887Z,5.20
2023-04-10T16:36:38.063Z,3.85
2023-04-10T16:39:07.417Z,4.05
2023-04-10T16:41:36.521Z,3.38
2023-04-10T16:44:04.985Z,4.50
2023-04-10T16:46:33.283Z,2.28
2023-04-10T16:49:01.643Z,3.15
2023-04-10T16:51:29.679Z,3.47
2023-04-10T16:53:57.588Z,1.88
2023-04-10T16:56:25.467Z,2.03
2023-04-10T16:58:53.567Z,1.90
2023-04-10T17:01:27.108Z,4.45
2023-04-10T17:03:55.329Z,2.70
2023-04-10T17:06:23.321Z,5.53
2023-04-10T17:08:51.401Z,2.53
2023-04-10T17:11:19.088Z,3.40
2023-04-10T17:13:46.850Z,2.38
2023-04-10T17:16:14.995Z,2.00
2023-04-10T17:18:43.518Z,2.72
2023-04-10T17:21:14.568Z,2.20
2023-04-10T17:23:42.541Z,2.25
2023-04-10T17:26:15.179Z,2.85
2023-04-10T17:28:46.382Z,5.10
2023-04-10T17:31:15.932Z,4.45
2023-04-10T17:36:13.570Z,1.98
2023-04-10T17:38:47.753Z,2.15
2023-04-10T17:41:16.406Z,2.80
2023-04-10T17:43:44.907Z,3.55
2023-04-10T17:46:17.076Z,2.92
2023-04-10T17:48:46.108Z,2.75
2023-04-10T17:51:18.481Z,2.08
2023-04-10T17:53:46.742Z,3.70
2023-04-10T17:56:20.823Z,3.30
2023-04-10T17:58:48.689Z,5.47
2023-04-10T18:01:30.977Z,7.18
2023-04-10T18:03:59.733Z,3.53
2023-04-10T18:06:27.667Z,3.50
2023-04-10T18:08:57.503Z,6.03
2023-04-10T18:11:26.162Z,3.97
2023-04-10T18:13:53.690Z,6.10
2023-04-10T18:16:21.329Z,3.80
2023-04-10T18:18:48.918Z,3.08
2023-04-10T18:21:16.602Z,3.25
2023-04-10T18:23:44.626Z,2.70
2023-04-10T18:26:13.202Z,3.20
2023-04-10T18:28:43.047Z,3.67
2023-04-10T18:31:12.507Z,3.17
2023-04-10T18:33:40.195Z,3.33
2023-04-10T18:36:08.372Z,3.53
2023-04-10T18:38:36.656Z,7.00
2023-04-10T18:41:05.334Z,2.65
2023-04-10T18:43:32.906Z,7.63
2023-04-10T18:46:00.827Z,3.92
2023-04-10T18:48:28.617Z,5.35
2023-04-10T18:50:56.309Z,3.40
2023-04-10T18:53:23.972Z,2.47
2023-04-10T18:55:52.796Z,4.15
2023-04-10T18:58:21.934Z,3.47
2023-04-10T19:03:17.538Z,3.70
2023-04-10T19:05:45.887Z,3.45
2023-04-10T19:08:14.639Z,6.18
2023-04-10T19:10:43.307Z,7.07
2023-04-10T19:13:12.220Z,5.28
2023-04-10T19:15:46.487Z,4.85
2023-04-10T19:18:15.884Z,4.35
2023-04-10T19:20:49.231Z,5.32
2023-04-10T19:23:20.539Z,4.30
2023-04-10T19:25:53.347Z,12.00
2023-04-10T19:28:23.758Z,11.63
2023-04-10T19:30:52.204Z,12.38
2023-04-10T19:33:20.569Z,18.30
2023-04-10T19:35:48.166Z,19.92
2023-04-10T19:38:15.871Z,18.00
2023-04-10T19:40:49.109Z,13.70
2023-04-10T19:43:17.103Z,11.65
2023-04-10T19:45:50.441Z,11.25
2023-04-10T19:48:18.445Z,10.23
2023-04-10T19:50:48.580Z,11.23
2023-04-10T19:53:16.422Z,5.43
2023-04-10T19:55:44.989Z,10.77
2023-04-10T19:58:29.976Z,5.13
2023-04-10T20:01:10.178Z,4.68
2023-04-10T20:03:38.701Z,5.57
2023-04-10T20:06:07.698Z,5.55
2023-04-10T20:08:36.498Z,5.75
2023-04-10T20:11:06.225Z,8.23
2023-04-10T20:13:34.846Z,6.53
2023-04-10T20:16:03.023Z,7.25
2023-04-10T20:18:32.122Z,5.35
2023-04-10T20:20:59.838Z,3.15
2023-04-10T20:23:27.524Z,3.58
2023-04-10T20:25:56.593Z,2.72
2023-04-10T20:28:24.658Z,5.30
2023-04-10T20:30:52.310Z,3.03
2023-04-10T20:33:19.940Z,4.80
2023-04-10T20:35:47.554Z,5.75
2023-04-10T20:38:15.367Z,4.63
2023-04-10T20:41:08.688Z,5.60
2023-04-10T20:43:36.746Z,3.72
2023-04-10T20:46:09.131Z,3.73
2023-04-10T20:48:38.029Z,4.88
2023-04-10T20:51:06.456Z,3.67
2023-04-10T20:53:34.344Z,4.97
2023-04-10T20:56:06.484Z,3.25
2023-04-10T20:58:34.360Z,8.32
2023-04-10T21:01:02.044Z,4.57
2023-04-10T21:03:30.788Z,7.00
2023-04-10T21:05:59.030Z,4.47
2023-04-10T21:08:27.577Z,2.90
2023-04-10T21:10:58.628Z,2.53
2023-04-10T21:13:26.718Z,4.40
2023-04-10T21:15:54.301Z,4.43
2023-04-10T21:18:21.966Z,4.35
2023-04-10T21:20:49.826Z,10.27
2023-04-10T21:23:17.484Z,4.93
2023-04-10T21:25:54.432Z,3.63
2023-04-10T21:28:22.415Z,4.38
2023-04-10T21:30:49.995Z,2.30
2023-04-10T21:33:17.541Z,2.75
2023-04-10T21:35:46.110Z,3.15
2023-04-10T21:38:13.929Z,3.95
2023-04-10T21:41:07.145Z,2.75
2023-04-10T21:43:35.383Z,4.63
2023-04-10T21:46:03.567Z,4.10
2023-04-10T21:48:31.527Z,3.42
2023-04-10T21:50:59.290Z,4.13
2023-04-10T21:53:26.889Z,3.25
2023-04-10T21:55:54.592Z,3.40
2023-04-10T21:58:22.113Z,4.13
2023-04-10T22:00:51.602Z,3.42
2023-04-10T22:03:20.284Z,4.55
2023-04-10T22:05:50.200Z,3.00
2023-04-10T22:08:20.138Z,4.00
2023-04-10T22:10:48.108Z,2.67
2023-04-10T22:15:47.124Z,3.03
2023-04-10T22:18:14.752Z,3.47
2023-04-10T22:20:42.647Z,2.47
2023-04-10T22:23:10.587Z,3.67
2023-04-10T22:25:38.953Z,3.50
2023-04-10T22:28:06.640Z,3.47
2023-04-10T22:30:35.495Z,3.20
2023-04-10T22:33:03.179Z,3.75
2023-04-10T22:35:31.562Z,3.85
2023-04-10T22:37:59.387Z,3.35
2023-04-10T22:40:27.146Z,3.72
2023-04-10T22:42:55.210Z,4.30
2023-04-10T22:45:22.877Z,7.93
2023-04-10T22:47:50.910Z,5.03
2023-04-10T22:50:18.937Z,5.32
2023-04-10T22:52:46.588Z,5.10
2023-04-10T22:55:14.726Z,5.68
2023-04-10T22:57:47.338Z,7.90
2023-04-10T23:00:16.110Z,9.50
2023-04-10T23:02:43.947Z,5.03
2023-04-10T23:05:14.725Z,6.38
2023-04-10T23:07:42.330Z,4.22
2023-04-10T23:10:10.236Z,3.33
2023-04-10T23:12:37.798Z,6.22
2023-04-10T23:15:08.128Z,4.13
2023-04-10T23:17:35.837Z,3.75
2023-04-10T23:20:03.704Z,5.15
2023-04-10T23:22:31.381Z,7.67
2023-04-10T23:24:59.012Z,3.40
2023-04-10T23:27:26.878Z,3.63
2023-04-10T23:29:54.724Z,6.13
2023-04-10T23:32:22.329Z,4.30
2023-04-10T23:34:49.955Z,5.50
2023-04-10T23:37:17.480Z,3.25
2023-04-10T23:39:45.005Z,2.50
2023-04-10T23:42:12.607Z,4.72
2023-04-10T23:44:40.887Z,3.45
2023-04-10T23:47:14.030Z,3.83
2023-04-10T23:49:41.595Z,4.63
2023-04-10T23:52:10.676Z,4.18
2023-04-10T23:54:38.244Z,1.77
2023-04-10T23:57:05.947Z,4.07
2023-04-10T23:59:33.768Z,2.30
